Home > Products > Valid Products > TAF

000
FTUS42 KMFL 200538
TAFPBI
TAF
KPBI 200538Z 2006/2106 VRB03KT P6SM VCSH SCT030 BKN080 BKN120
     FM201300 22008KT P6SM SHRA SCT035 BKN050 PROB30 2018/2024 4SM
      TSRA BKN035CB
     FM210100 VRB03KT P6SM SCT025 BKN060=



000
FTUS42 KMFL 200538
TAFFLL
TAF
KFLL 200538Z 2006/2106 VRB03KT P6SM VCSH SCT025 BKN080 BKN200
     FM201300 22008KT P6SM SHRA SCT035 BKN050 PROB30 2018/2020 4SM
      TSRA BKN035CB
     FM202000 28006KT P6SM SHRA SCT025 BKN060 PROB30 2020/2024 4SM
      TSRA BKN035CB
     FM210200 VRB03KT P6SM SCT025 BKN080=



000
FTUS42 KMFL 200538
TAFAPF
TAF
KAPF 200538Z 2006/2106 VRB03KT P6SM SCT060 OVC200
     FM201300 22006KT P6SM SHRA SCT035 BKN050
     FM201800 26006KT P6SM SHRA SCT035 BKN050 PROB30 2018/2024 4SM
      TSRA BKN035CB
     FM210000 VRB03KT P6SM SCT025 BKN070=



000
FTUS42 KMFL 200538
TAFMIA
TAF
KMIA 200538Z 2006/2106 VRB03KT P6SM VCSH SCT030 BKN080 OVC200
     FM201300 17008KT P6SM SHRA SCT035 BKN050
     FM201800 23008KT P6SM SHRA SCT035 BKN050 PROB30 2018/2020 4SM
      TSRA BKN035CB
     FM202000 28006KT P6SM SHRA SCT025 BKN060 PROB30 2020/2024 4SM
      TSRA BKN035CB
     FM210000 VRB03KT P6SM SCT025 BKN070=



000
FTUS42 KMFL 200538
TAFAPF
TAF
KAPF 200538Z 2006/2106 VRB03KT P6SM SCT060 OVC200
     FM201300 22006KT P6SM SHRA SCT035 BKN050
     FM201800 26006KT P6SM SHRA SCT035 BKN050 PROB30 2018/2024 4SM
      TSRA BKN035CB
     FM210000 VRB03KT P6SM SCT025 BKN070=



000
FTUS42 KMFL 200538
TAFMIA
TAF
KMIA 200538Z 2006/2106 VRB03KT P6SM VCSH SCT030 BKN080 OVC200
     FM201300 17008KT P6SM SHRA SCT035 BKN050
     FM201800 23008KT P6SM SHRA SCT035 BKN050 PROB30 2018/2020 4SM
      TSRA BKN035CB
     FM202000 28006KT P6SM SHRA SCT025 BKN060 PROB30 2020/2024 4SM
      TSRA BKN035CB
     FM210000 VRB03KT P6SM SCT025 BKN070=



000
FTUS42 KMFL 200538
TAFFLL
TAF
KFLL 200538Z 2006/2106 VRB03KT P6SM VCSH SCT025 BKN080 BKN200
     FM201300 22008KT P6SM SHRA SCT035 BKN050 PROB30 2018/2020 4SM
      TSRA BKN035CB
     FM202000 28006KT P6SM SHRA SCT025 BKN060 PROB30 2020/2024 4SM
      TSRA BKN035CB
     FM210200 VRB03KT P6SM SCT025 BKN080=



000
FTUS42 KMFL 200538
TAFPBI
TAF
KPBI 200538Z 2006/2106 VRB03KT P6SM VCSH SCT030 BKN080 BKN120
     FM201300 22008KT P6SM SHRA SCT035 BKN050 PROB30 2018/2024 4SM
      TSRA BKN035CB
     FM210100 VRB03KT P6SM SCT025 BKN060=



000
FTUS42 KMFL 200242 AAA
TAFFLL
TAF AMD
KFLL 200242Z 2003/2024 VRB03KT P6SM VCSH SCT030 BKN080 BKN200
     FM200800 VRB03KT P6SM -SHRA BKN030 OVC090
     FM201300 22008KT P6SM SHRA SCT035 BKN050 PROB30 2013/2019 3SM
      +TSRA BKN025CB=



000
FTUS42 KMFL 200242 AAA
TAFMIA
TAF AMD
KMIA 200242Z 2003/2024 VRB03KT P6SM VCSH SCT030 BKN090 OVC200
     FM200800 VRB03KT P6SM -SHRA BKN030 OVC090
     FM201300 22008KT P6SM SHRA SCT035 BKN050 PROB30 2013/2019 3SM
      +TSRA BKN025CB=



000
FTUS42 KMFL 200242 AAB
TAFAPF
TAF AMD
KAPF 200242Z 2003/2024 VRB02KT P6SM -SHRA SCT025 SCT060 OVC200
     FM201300 22007KT P6SM VCTS SCT035CB BKN050=



000
FTUS42 KMFL 200242 AAA
TAFPBI
TAF AMD
KPBI 200242Z 2003/2024 VRB03KT P6SM VCSH SCT030 BKN080 BKN120
     FM200700 VRB03KT P6SM -SHRA BKN030 OVC090
     FM201200 22008KT P6SM SHRA SCT035 BKN050 PROB30 2012/2018 3SM
      +TSRA BKN025CB=



000
FTUS42 KMFL 200242 AAA
TAFPBI
TAF AMD
KPBI 200242Z 2003/2024 VRB03KT P6SM VCSH SCT030 BKN080 BKN120
     FM200700 VRB03KT P6SM -SHRA BKN030 OVC090
     FM201200 22008KT P6SM SHRA SCT035 BKN050 PROB30 2012/2018 3SM
      +TSRA BKN025CB=



000
FTUS42 KMFL 200242 AAB
TAFAPF
TAF AMD
KAPF 200242Z 2003/2024 VRB02KT P6SM -SHRA SCT025 SCT060 OVC200
     FM201300 22007KT P6SM VCTS SCT035CB BKN050=



000
FTUS42 KMFL 200242 AAA
TAFFLL
TAF AMD
KFLL 200242Z 2003/2024 VRB03KT P6SM VCSH SCT030 BKN080 BKN200
     FM200800 VRB03KT P6SM -SHRA BKN030 OVC090
     FM201300 22008KT P6SM SHRA SCT035 BKN050 PROB30 2013/2019 3SM
      +TSRA BKN025CB=



000
FTUS42 KMFL 200242 AAA
TAFMIA
TAF AMD
KMIA 200242Z 2003/2024 VRB03KT P6SM VCSH SCT030 BKN090 OVC200
     FM200800 VRB03KT P6SM -SHRA BKN030 OVC090
     FM201300 22008KT P6SM SHRA SCT035 BKN050 PROB30 2013/2019 3SM
      +TSRA BKN025CB=



000
FTUS42 KMFL 200113 AAA
TAFAPF
TAF AMD
KAPF 200113Z 2001/2024 33009KT 2SM +RA BKN014 BKN027 OVC050
     FM200200 VRB02KT 6SM -RA SCT014 BKN035 OVC200
     FM200400 VRB03KT 6SM -RA BKN030 OVC090
     FM201300 22007KT P6SM VCTS SCT035CB BKN050=



000
FTUS42 KMFL 192341
TAFMIA
TAF
KMIA 192341Z 2000/2024 VRB03KT P6SM VCSH SCT030 BKN090 OVC200
     FM200800 VRB03KT 6SM -RA BKN030 OVC090
     FM201300 22008KT P6SM VCTS SCT035CB BKN050 PROB30 2013/2019 3SM
      +TSRA BKN025CB=



000
FTUS42 KMFL 192341
TAFAPF
TAF
KAPF 192341Z 2000/2024 VRB02KT P6SM VCSH SCT070 OVC200
     FM200400 VRB03KT 6SM -RA BKN030 OVC090
     FM201300 22007KT P6SM VCTS SCT035CB BKN050=



000
FTUS42 KMFL 192341
TAFFLL
TAF
KFLL 192341Z 2000/2024 VRB03KT P6SM VCSH SCT030 BKN090 OVC200
     FM200800 VRB03KT 6SM -RA BKN030 OVC090
     FM201300 22008KT P6SM VCTS SCT035CB BKN050 PROB30 2013/2019 3SM
      +TSRA BKN025CB=



000
FTUS42 KMFL 192341
TAFAPF
TAF
KAPF 192341Z 2000/2024 VRB02KT P6SM VCSH SCT070 OVC200
     FM200400 VRB03KT 6SM -RA BKN030 OVC090
     FM201300 22007KT P6SM VCTS SCT035CB BKN050=



000
FTUS42 KMFL 192341
TAFMIA
TAF
KMIA 192341Z 2000/2024 VRB03KT P6SM VCSH SCT030 BKN090 OVC200
     FM200800 VRB03KT 6SM -RA BKN030 OVC090
     FM201300 22008KT P6SM VCTS SCT035CB BKN050 PROB30 2013/2019 3SM
      +TSRA BKN025CB=



000
FTUS42 KMFL 192341
TAFFLL
TAF
KFLL 192341Z 2000/2024 VRB03KT P6SM VCSH SCT030 BKN090 OVC200
     FM200800 VRB03KT 6SM -RA BKN030 OVC090
     FM201300 22008KT P6SM VCTS SCT035CB BKN050 PROB30 2013/2019 3SM
      +TSRA BKN025CB=



000
FTUS42 KMFL 192341
TAFPBI
TAF
KPBI 192341Z 2000/2024 VRB03KT P6SM VCSH SCT030 BKN090 OVC200
     FM200700 VRB03KT 6SM -RA BKN030 OVC090
     FM201200 22008KT P6SM VCTS SCT035CB BKN050 PROB30 2012/2018 3SM
      +TSRA BKN025CB=



000
FTUS42 KMFL 192341
TAFPBI
TAF
KPBI 192341Z 2000/2024 VRB03KT P6SM VCSH SCT030 BKN090 OVC200
     FM200700 VRB03KT 6SM -RA BKN030 OVC090
     FM201200 22008KT P6SM VCTS SCT035CB BKN050 PROB30 2012/2018 3SM
      +TSRA BKN025CB=



000
FTUS42 KMFL 192122 AAC
TAFMIA
TAF AMD
KMIA 192122Z 1921/2018 20005KT 3SM RA BKN030 BKN050
     FM192200 03005KT P6SM VCSH SCT030 BKN070=



000
FTUS42 KMFL 192122 AAC
TAFMIA
TAF AMD
KMIA 192122Z 1921/2018 20005KT 3SM RA BKN030 BKN050
     FM192200 03005KT P6SM VCSH SCT030 BKN070=



000
FTUS42 KMFL 192015 AAB
TAFMIA
TAF AMD
KMIA 192015Z 1920/2018 13005KT P6SM -TSRA SCT025CB BKN090
      TEMPO 1920/1921 27010G20KT 3SM +TSRA BKN025CB
     FM192100 VRB05KT P6SM VCSH FEW025 BKN160 OVC210
     FM200000 03005KT P6SM VCSH SCT030 BKN070=



000
FTUS42 KMFL 192015 AAB
TAFMIA
TAF AMD
KMIA 192015Z 1920/2018 13005KT P6SM -TSRA SCT025CB BKN090
      TEMPO 1920/1921 27010G20KT 3SM +TSRA BKN025CB
     FM192100 VRB05KT P6SM VCSH FEW025 BKN160 OVC210
     FM200000 03005KT P6SM VCSH SCT030 BKN070=



000
FTUS42 KMFL 191909 AAA
TAFAPF
TAF AMD
KAPF 191909Z 1919/2018 00000KT P6SM VCSH SCT008 BKN030
     FM200000 04005KT P6SM SCT070=



000
FTUS42 KMFL 191909 AAA
TAFAPF
TAF AMD
KAPF 191909Z 1919/2018 00000KT P6SM VCSH SCT008 BKN030
     FM200000 04005KT P6SM SCT070=



000
FTUS42 KMFL 191908 AAA
TAFMIA
TAF AMD
KMIA 191908Z 1919/2018 12005KT P6SM VCSH FEW025 BKN160 OVC210
     FM200000 03005KT P6SM VCSH SCT030 BKN070=



000
FTUS42 KMFL 191908 AAA
TAFMIA
TAF AMD
KMIA 191908Z 1919/2018 12005KT P6SM VCSH FEW025 BKN160 OVC210
     FM200000 03005KT P6SM VCSH SCT030 BKN070=



000
FTUS42 KMFL 191906 AAA
TAFFLL
TAF AMD
KFLL 191906Z 1919/2018 VRB02KT P6SM -RA SCT050 BKN070 OVC090
     FM200000 05006KT P6SM VCSH SCT030 BKN070=



000
FTUS42 KMFL 191906 AAA
TAFFLL
TAF AMD
KFLL 191906Z 1919/2018 VRB02KT P6SM -RA SCT050 BKN070 OVC090
     FM200000 05006KT P6SM VCSH SCT030 BKN070=



000
FTUS42 KMFL 191723
TAFFLL
TAF
KFLL 191723Z 1918/2018 13007G17KT P6SM VCTS SCT035CB
      TEMPO 1918/1920 3SM TSRA BKN030CB
     FM200000 05006KT P6SM VCSH SCT030 BKN070=



000
FTUS42 KMFL 191723
TAFMIA
TAF
KMIA 191723Z 1918/2018 23013KT P6SM VCTS SCT025CB BKN060 OVC150
      TEMPO 1918/1920 5SM TSRA BKN030CB
     FM200000 03005KT P6SM VCSH SCT030 BKN070=



000
FTUS42 KMFL 191723
TAFPBI
TAF
KPBI 191723Z 1918/2018 13011KT P6SM VCTS SCT027CB SCT045 BKN250
      TEMPO 1918/1920 5SM TSRA BKN030CB
     FM200000 02006KT P6SM VCSH SCT030 BKN070=



000
FTUS42 KMFL 191723
TAFMIA
TAF
KMIA 191723Z 1918/2018 23013KT P6SM VCTS SCT025CB BKN060 OVC150
      TEMPO 1918/1920 5SM TSRA BKN030CB
     FM200000 03005KT P6SM VCSH SCT030 BKN070=



000
FTUS42 KMFL 191723
TAFPBI
TAF
KPBI 191723Z 1918/2018 13011KT P6SM VCTS SCT027CB SCT045 BKN250
      TEMPO 1918/1920 5SM TSRA BKN030CB
     FM200000 02006KT P6SM VCSH SCT030 BKN070=



000
FTUS42 KMFL 191723
TAFAPF
TAF
KAPF 191723Z 1918/2018 00000KT P6SM VCTS SCT022CB BKN110
      TEMPO 1918/1920 3SM TSRA BKN020CB
     FM200000 04005KT P6SM SCT070=



000
FTUS42 KMFL 191723
TAFFLL
TAF
KFLL 191723Z 1918/2018 13007G17KT P6SM VCTS SCT035CB
      TEMPO 1918/1920 3SM TSRA BKN030CB
     FM200000 05006KT P6SM VCSH SCT030 BKN070=



000
FTUS42 KMFL 191723
TAFAPF
TAF
KAPF 191723Z 1918/2018 00000KT P6SM VCTS SCT022CB BKN110
      TEMPO 1918/1920 3SM TSRA BKN020CB
     FM200000 04005KT P6SM SCT070=



000
FTUS42 KMFL 191534 AAA
TAFPBI
TAF AMD
KPBI 191534Z 1916/2012 VRB03KT P6SM VCTS SCT021CB SCT030 BKN050
     FM200000 02006KT P6SM VCSH SCT030 BKN070=



000
FTUS42 KMFL 191534 AAA
TAFAPF
TAF AMD
KAPF 191534Z 1916/2012 16004KT P6SM VCTS SCT030CB BKN110
     FM200000 04005KT P6SM SCT070=



000
FTUS42 KMFL 191534 AAA
TAFPBI
TAF AMD
KPBI 191534Z 1916/2012 VRB03KT P6SM VCTS SCT021CB SCT030 BKN050
     FM200000 02006KT P6SM VCSH SCT030 BKN070=



000
FTUS42 KMFL 191534 AAA
TAFMIA
TAF AMD
KMIA 191534Z 1916/2012 24006KT P6SM VCTS SCT023CB BKN040 OVC300
     FM200000 03005KT P6SM VCSH SCT030 BKN070=



000
FTUS42 KMFL 191534 AAA
TAFFLL
TAF AMD
KFLL 191534Z 1916/2012 24005KT P6SM VCTS SCT027CB SCT100 BKN250
     FM200000 05006KT P6SM VCSH SCT030 BKN070=



000
FTUS42 KMFL 191534 AAA
TAFAPF
TAF AMD
KAPF 191534Z 1916/2012 16004KT P6SM VCTS SCT030CB BKN110
     FM200000 04005KT P6SM SCT070=



000
FTUS42 KMFL 191534 AAA
TAFMIA
TAF AMD
KMIA 191534Z 1916/2012 24006KT P6SM VCTS SCT023CB BKN040 OVC300
     FM200000 03005KT P6SM VCSH SCT030 BKN070=



000
FTUS42 KMFL 191534 AAA
TAFFLL
TAF AMD
KFLL 191534Z 1916/2012 24005KT P6SM VCTS SCT027CB SCT100 BKN250
     FM200000 05006KT P6SM VCSH SCT030 BKN070=



000
FTUS42 KMFL 191120
TAFAPF
TAF
KAPF 191120Z 1912/2012 09004KT P6SM VCSH FEW025 BKN250
     FM191600 34007KT P6SM VCTS SCT030CB BKN250
     FM200000 04005KT P6SM SCT070=



000
FTUS42 KMFL 191120
TAFFLL
TAF
KFLL 191120Z 1912/2012 00000KT P6SM FEW025 SCT250
     FM191400 11006KT P6SM SCT040 BKN250
     FM191800 14008KT P6SM VCTS SCT030CB BKN250
     FM200000 05006KT P6SM VCSH SCT030 BKN070=



000
FTUS42 KMFL 191120
TAFPBI
TAF
KPBI 191120Z 1912/2012 00000KT P6SM FEW025 BKN250
     FM191400 08006KT P6SM SCT040 BKN250
     FM191800 10008KT P6SM VCTS SCT030CB BKN250
     FM200000 02006KT P6SM VCSH SCT030 BKN070=



000
FTUS42 KMFL 191120
TAFMIA
TAF
KMIA 191120Z 1912/2012 22003KT P6SM FEW025 BKN250
     FM191400 16006KT P6SM VCSH SCT030 BKN250
     FM191800 24008KT P6SM VCTS SCT035CB BKN250
     FM200000 03005KT P6SM VCSH SCT030 BKN070=



000
FTUS42 KMFL 191120
TAFMIA
TAF
KMIA 191120Z 1912/2012 22003KT P6SM FEW025 BKN250
     FM191400 16006KT P6SM VCSH SCT030 BKN250
     FM191800 24008KT P6SM VCTS SCT035CB BKN250
     FM200000 03005KT P6SM VCSH SCT030 BKN070=



000
FTUS42 KMFL 191120
TAFAPF
TAF
KAPF 191120Z 1912/2012 09004KT P6SM VCSH FEW025 BKN250
     FM191600 34007KT P6SM VCTS SCT030CB BKN250
     FM200000 04005KT P6SM SCT070=



000
FTUS42 KMFL 190905 AAA
TAFAPF
TAF AMD
KAPF 190905Z 1909/2006 00000KT P6SM SCT250
     FM191600 34005KT P6SM SCT030
     FM191800 31008KT P6SM VCTS SCT030CB BKN060
     FM200000 04005KT P6SM SCT070=



000
FTUS42 KMFL 190905 AAA
TAFAPF
TAF AMD
KAPF 190905Z 1909/2006 00000KT P6SM SCT250
     FM191600 34005KT P6SM SCT030
     FM191800 31008KT P6SM VCTS SCT030CB BKN060
     FM200000 04005KT P6SM SCT070=



000
FTUS42 KMFL 190904 AAA
TAFMIA
TAF AMD
KMIA 190904Z 1909/2006 VRB03KT P6SM FEW025 SCT250
     FM191400 16006KT P6SM SCT040
     FM191800 24008KT P6SM SCT030 PROB30 1918/1922 6SM TS BKN030CB
     FM200000 03005KT P6SM VCSH SCT030 BKN070=



000
FTUS42 KMFL 190904 AAA
TAFMIA
TAF AMD
KMIA 190904Z 1909/2006 VRB03KT P6SM FEW025 SCT250
     FM191400 16006KT P6SM SCT040
     FM191800 24008KT P6SM SCT030 PROB30 1918/1922 6SM TS BKN030CB
     FM200000 03005KT P6SM VCSH SCT030 BKN070=



000
FTUS42 KMFL 190903 AAA
TAFFLL
TAF AMD
KFLL 190903Z 1909/2006 VRB03KT P6SM FEW035 SCT250
     FM191400 11006KT P6SM SCT040
     FM191800 14008KT P6SM SCT030 PROB30 1918/1922 6SM TS BKN030CB
     FM200000 05006KT P6SM VCSH SCT030 BKN070=



000
FTUS42 KMFL 190903 AAA
TAFFLL
TAF AMD
KFLL 190903Z 1909/2006 VRB03KT P6SM FEW035 SCT250
     FM191400 11006KT P6SM SCT040
     FM191800 14008KT P6SM SCT030 PROB30 1918/1922 6SM TS BKN030CB
     FM200000 05006KT P6SM VCSH SCT030 BKN070=



000
FTUS42 KMFL 190902 AAA
TAFPBI
TAF AMD
KPBI 190902Z 1909/2006 VRB03KT P6SM FEW025 SCT250
     FM191400 08006KT P6SM SCT040
     FM191800 10008KT P6SM SCT030 PROB30 1918/1922 6SM TS BKN030CB
     FM200000 02006KT P6SM VCSH SCT030 BKN070=



000
FTUS42 KMFL 190902 AAA
TAFPBI
TAF AMD
KPBI 190902Z 1909/2006 VRB03KT P6SM FEW025 SCT250
     FM191400 08006KT P6SM SCT040
     FM191800 10008KT P6SM SCT030 PROB30 1918/1922 6SM TS BKN030CB
     FM200000 02006KT P6SM VCSH SCT030 BKN070=



000
FTUS42 KMFL 190541
TAFPBI
TAF
KPBI 190541Z 1906/2006 VRB03KT P6SM FEW035 SCT250
     FM191400 08006KT P6SM SCT040
     FM191800 10008KT P6SM SCT030 PROB30 1918/1922 6SM TS BKN030CB
     FM200000 02006KT P6SM VCSH SCT030 BKN070=



000
FTUS42 KMFL 190541
TAFMIA
TAF
KMIA 190541Z 1906/2006 VRB03KT P6SM FEW025 SCT250
     FM191400 16006KT P6SM SCT040
     FM191800 24008KT P6SM SCT030 PROB30 1918/1922 6SM TS BKN030CB
     FM200000 03005KT P6SM VCSH SCT030 BKN070=



000
FTUS42 KMFL 190541
TAFFLL
TAF
KFLL 190541Z 1906/2006 VRB03KT P6SM FEW035 SCT250
     FM191400 11006KT P6SM SCT040
     FM191800 14008KT P6SM SCT030 PROB30 1918/1922 6SM TS BKN030CB
     FM200000 05006KT P6SM VCSH SCT030 BKN070=



000
FTUS42 KMFL 190541
TAFAPF
TAF
KAPF 190541Z 1906/2006 00000KT P6SM SCT250
     FM191600 34005KT P6SM SCT030
     FM191800 31008KT P6SM VCTS SCT030CB BKN060
     FM200000 04005KT P6SM SCT070=



000
FTUS42 KMFL 190541
TAFPBI
TAF
KPBI 190541Z 1906/2006 VRB03KT P6SM FEW035 SCT250
     FM191400 08006KT P6SM SCT040
     FM191800 10008KT P6SM SCT030 PROB30 1918/1922 6SM TS BKN030CB
     FM200000 02006KT P6SM VCSH SCT030 BKN070=



000
FTUS42 KMFL 190541
TAFMIA
TAF
KMIA 190541Z 1906/2006 VRB03KT P6SM FEW025 SCT250
     FM191400 16006KT P6SM SCT040
     FM191800 24008KT P6SM SCT030 PROB30 1918/1922 6SM TS BKN030CB
     FM200000 03005KT P6SM VCSH SCT030 BKN070=



000
FTUS42 KMFL 190541
TAFAPF
TAF
KAPF 190541Z 1906/2006 00000KT P6SM SCT250
     FM191600 34005KT P6SM SCT030
     FM191800 31008KT P6SM VCTS SCT030CB BKN060
     FM200000 04005KT P6SM SCT070=



000
FTUS42 KMFL 190541
TAFFLL
TAF
KFLL 190541Z 1906/2006 VRB03KT P6SM FEW035 SCT250
     FM191400 11006KT P6SM SCT040
     FM191800 14008KT P6SM SCT030 PROB30 1918/1922 6SM TS BKN030CB
     FM200000 05006KT P6SM VCSH SCT030 BKN070=



000
FTUS42 KMFL 190247 AAB
TAFAPF
TAF AMD
KAPF 190247Z 1903/1924 VRB03KT P6SM SCT030 SCT250
     FM190500 08003KT P6SM VCSH SCT050 SCT250
     FM191600 24006KT P6SM SCT030 PROB30 1916/1918 5SM TS BKN025CB=



000
FTUS42 KMFL 190247 AAB
TAFAPF
TAF AMD
KAPF 190247Z 1903/1924 VRB03KT P6SM SCT030 SCT250
     FM190500 08003KT P6SM VCSH SCT050 SCT250
     FM191600 24006KT P6SM SCT030 PROB30 1916/1918 5SM TS BKN025CB=



000
FTUS42 KMFL 190245 AAC
TAFMIA
TAF AMD
KMIA 190245Z 1903/1924 20006KT P6SM VCSH FEW035 BKN070
     FM190330 VRB03KT P6SM SCT250
     FM191900 23006KT P6SM SCT030 PROB30 1919/1921 6SM TS BKN030CB=



000
FTUS42 KMFL 190245 AAC
TAFMIA
TAF AMD
KMIA 190245Z 1903/1924 20006KT P6SM VCSH FEW035 BKN070
     FM190330 VRB03KT P6SM SCT250
     FM191900 23006KT P6SM SCT030 PROB30 1919/1921 6SM TS BKN030CB=



000
FTUS42 KMFL 190237 AAB
TAFFLL
TAF AMD
KFLL 190237Z 1903/1924 14012KT P6SM VCSH FEW025 SCT080
     FM190300 VRB04KT P6SM FEW035 SCT250
     FM191800 23006KT P6SM SCT030 PROB30 1918/1920 6SM TS BKN030CB=



000
FTUS42 KMFL 190237 AAB
TAFFLL
TAF AMD
KFLL 190237Z 1903/1924 14012KT P6SM VCSH FEW025 SCT080
     FM190300 VRB04KT P6SM FEW035 SCT250
     FM191800 23006KT P6SM SCT030 PROB30 1918/1920 6SM TS BKN030CB=



000
FTUS42 KMFL 190234 AAD
TAFPBI
TAF AMD
KPBI 190234Z 1903/1924 VRB03KT P6SM FEW035 SCT250
     FM191400 08005KT P6SM SCT040
     FM191700 23006KT P6SM SCT030 PROB30 1917/1919 6SM TS BKN030CB=



000
FTUS42 KMFL 190219 AAB
TAFMIA
TAF AMD
KMIA 190219Z 1902/1924 21049KT P6SM SCT050 BKN060
     FM190500 VRB03KT P6SM SCT250
     FM191900 23006KT P6SM SCT030 PROB30 1919/1921 6SM TS BKN030CB=



000
FTUS42 KMFL 190219 AAB
TAFMIA
TAF AMD
KMIA 190219Z 1902/1924 21049KT P6SM SCT050 BKN060
     FM190500 VRB03KT P6SM SCT250
     FM191900 23006KT P6SM SCT030 PROB30 1919/1921 6SM TS BKN030CB=



000
FTUS42 KMFL 190217 AAA
TAFAPF
TAF AMD
KAPF 190217Z 1902/1924 VRB03KT P6SM SCT250
     FM190500 08003KT P6SM VCSH SCT050 SCT250
     FM191600 24006KT P6SM SCT030 PROB30 1916/1918 5SM TS BKN025CB=



000
FTUS42 KMFL 190217 AAA
TAFAPF
TAF AMD
KAPF 190217Z 1902/1924 VRB03KT P6SM SCT250
     FM190500 08003KT P6SM VCSH SCT050 SCT250
     FM191600 24006KT P6SM SCT030 PROB30 1916/1918 5SM TS BKN025CB=



000
FTUS42 KMFL 190207 AAC
TAFPBI
TAF AMD
KPBI 190207Z 1902/1924 VRB02KT P6SM SCT250
     FM191400 08005KT P6SM SCT040
     FM191700 23006KT P6SM SCT030 PROB30 1917/1919 6SM TS BKN030CB=



000
FTUS42 KMFL 190207 AAC
TAFPBI
TAF AMD
KPBI 190207Z 1902/1924 VRB02KT P6SM SCT250
     FM191400 08005KT P6SM SCT040
     FM191700 23006KT P6SM SCT030 PROB30 1917/1919 6SM TS BKN030CB=



000
FTUS42 KMFL 190206 AAB
TAFPBI
TAF AMD
KPBI 190206Z 1902/1924 VRB02KT P6SM SCT250
     FM191400 08005KT P6SM SCT040
     FM191900 23006KT P6SM SCT030 PROB30 1919/1921 6SM TS BKN030CB=



000
FTUS42 KMFL 190206 AAB
TAFPBI
TAF AMD
KPBI 190206Z 1902/1924 VRB02KT P6SM SCT250
     FM191400 08005KT P6SM SCT040
     FM191900 23006KT P6SM SCT030 PROB30 1919/1921 6SM TS BKN030CB=



000
FTUS42 KMFL 190035 AAA
TAFPBI
TAF AMD
KPBI 190035Z 1901/1924 16005KT P6SM VCTS SCT030CB BKN050
     FM190200 VRB03KT P6SM BKN050
     FM191400 08005KT P6SM SCT040
     FM191900 23006KT P6SM SCT030 PROB30 1919/1921 6SM TS BKN030CB=



000
FTUS42 KMFL 190035 AAA
TAFPBI
TAF AMD
KPBI 190035Z 1901/1924 16005KT P6SM VCTS SCT030CB BKN050
     FM190200 VRB03KT P6SM BKN050
     FM191400 08005KT P6SM SCT040
     FM191900 23006KT P6SM SCT030 PROB30 1919/1921 6SM TS BKN030CB=



000
FTUS42 KMFL 182354 AAA
TAFMIA
TAF AMD
KMIA 182354Z 1900/1924 26009KT P6SM SCT050 BKN060
     FM190500 VRB03KT P6SM SCT250
     FM191900 23006KT P6SM SCT030 PROB30 1919/1921 6SM TS BKN030CB=



000
FTUS42 KMFL 182354 AAA
TAFMIA
TAF AMD
KMIA 182354Z 1900/1924 26009KT P6SM SCT050 BKN060
     FM190500 VRB03KT P6SM SCT250
     FM191900 23006KT P6SM SCT030 PROB30 1919/1921 6SM TS BKN030CB=



000
FTUS42 KMFL 182345 AAA
TAFFLL
TAF AMD
KFLL 182345Z 1900/1924 14012KT P6SM VCTS SCT060CB
      TEMPO 1900/1901 VRB10G25KT 3SM +TSRA SCT030CB BKN080
     FM190200 VRB04KT P6SM FEW035 SCT250
     FM191800 23006KT P6SM SCT030 PROB30 1918/1920 6SM TS BKN030CB=



000
FTUS42 KMFL 182341
TAFMIA
TAF
KMIA 182341Z 1900/1924 22009KT P6SM SCT050
     FM190500 VRB03KT P6SM SCT250
     FM191900 23006KT P6SM SCT030 PROB30 1919/1921 6SM TS BKN030CB=



000
FTUS42 KMFL 182341
TAFPBI
TAF
KPBI 182341Z 1900/1924 13009KT P6SM -TSRA BKN030CB
     FM190015 16005KT P6SM SCT050
     FM191900 23006KT P6SM SCT030 PROB30 1919/1921 6SM TS BKN030CB=



000
FTUS42 KMFL 182341
TAFAPF
TAF
KAPF 182341Z 1900/1924 24007KT P6SM SCT050
     FM190500 08003KT P6SM VCSH SCT050 SCT250
     FM191600 24006KT P6SM SCT030 PROB30 1916/1918 5SM TS BKN025CB=



000
FTUS42 KMFL 182341
TAFFLL
TAF
KFLL 182341Z 1900/1924 14012KT P6SM VCTS SCT060CB
     FM190200 VRB04KT P6SM FEW035 SCT250
     FM191800 23006KT P6SM SCT030 PROB30 1918/1920 6SM TS BKN030CB=



000
FTUS42 KMFL 182341
TAFMIA
TAF
KMIA 182341Z 1900/1924 22009KT P6SM SCT050
     FM190500 VRB03KT P6SM SCT250
     FM191900 23006KT P6SM SCT030 PROB30 1919/1921 6SM TS BKN030CB=



000
FTUS42 KMFL 182341
TAFPBI
TAF
KPBI 182341Z 1900/1924 13009KT P6SM -TSRA BKN030CB
     FM190015 16005KT P6SM SCT050
     FM191900 23006KT P6SM SCT030 PROB30 1919/1921 6SM TS BKN030CB=



000
FTUS42 KMFL 182341
TAFAPF
TAF
KAPF 182341Z 1900/1924 24007KT P6SM SCT050
     FM190500 08003KT P6SM VCSH SCT050 SCT250
     FM191600 24006KT P6SM SCT030 PROB30 1916/1918 5SM TS BKN025CB=



000
FTUS42 KMFL 182341
TAFFLL
TAF
KFLL 182341Z 1900/1924 14012KT P6SM VCTS SCT060CB
     FM190200 VRB04KT P6SM FEW035 SCT250
     FM191800 23006KT P6SM SCT030 PROB30 1918/1920 6SM TS BKN030CB=



000
FTUS42 KMFL 182234 AAC
TAFPBI
TAF AMD
KPBI 182234Z 1823/1918 12011KT P6SM VCTS BKN030CB
      TEMPO 1823/1824 VRB10G20KT 3SM TSRA BKN020CB OVC090
     FM190200 06003KT P6SM FEW030 SCT250
     FM191400 07007KT P6SM SCT030 BKN050=



000
FTUS42 KMFL 182142 AAB
TAFPBI
TAF AMD
KPBI 182142Z 1822/1918 12011KT P6SM VCTS BKN030CB
     FM190200 06003KT P6SM FEW030 SCT250
     FM191400 07007KT P6SM SCT030 BKN050=



000
FTUS42 KMFL 182142 AAB
TAFPBI
TAF AMD
KPBI 182142Z 1822/1918 12011KT P6SM VCTS BKN030CB
     FM190200 06003KT P6SM FEW030 SCT250
     FM191400 07007KT P6SM SCT030 BKN050=



000
FTUS42 KMFL 182141 AAB
TAFFLL
TAF AMD
KFLL 182141Z 1822/1918 14012KT P6SM VCTS SCT060CB
     FM190200 VRB04KT P6SM FEW035 SCT250
     FM191400 09007KT P6SM VCTS SCT030CB BKN050=



000
FTUS42 KMFL 182141 AAB
TAFFLL
TAF AMD
KFLL 182141Z 1822/1918 14012KT P6SM VCTS SCT060CB
     FM190200 VRB04KT P6SM FEW035 SCT250
     FM191400 09007KT P6SM VCTS SCT030CB BKN050=



000
FTUS42 KMFL 182115 AAA
TAFFLL
TAF AMD
KFLL 182115Z 1821/1918 14012KT P6SM SCT060 BKN250
     FM190500 VRB04KT P6SM FEW035 SCT250
     FM191400 09007KT P6SM VCTS SCT030CB BKN050=



000
FTUS42 KMFL 182115 AAA
TAFPBI
TAF AMD
KPBI 182115Z 1821/1918 12011KT P6SM BKN050
     FM190600 06003KT P6SM FEW030 SCT250
     FM191400 07007KT P6SM SCT030 BKN050=



000
FTUS42 KMFL 182115 AAA
TAFFLL
TAF AMD
KFLL 182115Z 1821/1918 14012KT P6SM SCT060 BKN250
     FM190500 VRB04KT P6SM FEW035 SCT250
     FM191400 09007KT P6SM VCTS SCT030CB BKN050=



000
FTUS42 KMFL 182115 AAA
TAFPBI
TAF AMD
KPBI 182115Z 1821/1918 12011KT P6SM BKN050
     FM190600 06003KT P6SM FEW030 SCT250
     FM191400 07007KT P6SM SCT030 BKN050=



000
FTUS42 KMFL 182115 AAA
TAFMIA
TAF AMD
KMIA 182115Z 1821/1918 22009KT P6SM SCT050
     FM190500 VRB03KT P6SM SCT250
     FM191400 09007KT P6SM SCT030 BKN050=



000
FTUS42 KMFL 182115 AAB
TAFAPF
TAF AMD
KAPF 182115Z 1821/1918 24007KT P6SM SCT050
     FM190500 08003KT P6SM FEW030 SCT250
     FM191300 07005KT P6SM SCT030 SCT050=



000
FTUS42 KMFL 182115 AAA
TAFMIA
TAF AMD
KMIA 182115Z 1821/1918 22009KT P6SM SCT050
     FM190500 VRB03KT P6SM SCT250
     FM191400 09007KT P6SM SCT030 BKN050=



000
FTUS42 KMFL 182115 AAB
TAFAPF
TAF AMD
KAPF 182115Z 1821/1918 24007KT P6SM SCT050
     FM190500 08003KT P6SM FEW030 SCT250
     FM191300 07005KT P6SM SCT030 SCT050=



000
FTUS42 KMFL 181937 AAA
TAFAPF
TAF AMD
KAPF 181937Z 1820/1918 27006KT P6SM VCTS SCT050CB
     FM190100 VRB02KT P6SM FEW030 SCT250
     FM191300 07005KT P6SM VCSH SCT030 SCT050=



000
FTUS42 KMFL 181937 AAA
TAFAPF
TAF AMD
KAPF 181937Z 1820/1918 27006KT P6SM VCTS SCT050CB
     FM190100 VRB02KT P6SM FEW030 SCT250
     FM191300 07005KT P6SM VCSH SCT030 SCT050=



000
FTUS42 KMFL 181743 CCA
TAFPBI
TAF COR
KPBI 181743Z 1818/1918 09007KT P6SM VCTS SCT030CB BKN050
     FM190000 VRB03KT P6SM FEW030 SCT250
     FM191400 07007KT P6SM VCTS SCT030CB BKN050=



000
FTUS42 KMFL 181743 CCA
TAFPBI
TAF COR
KPBI 181743Z 1818/1918 09007KT P6SM VCTS SCT030CB BKN050
     FM190000 VRB03KT P6SM FEW030 SCT250
     FM191400 07007KT P6SM VCTS SCT030CB BKN050=



000
FTUS42 KMFL 181727
TAFAPF
TAF
KAPF 181727Z 1818/1918 27006KT P6SM VCSH FEW030 SCT050
     FM190000 VRB02KT P6SM FEW030 SCT250
     FM191300 07005KT P6SM VCSH SCT030 SCT050=



000
FTUS42 KMFL 181727
TAFMIA
TAF
KMIA 181727Z 1818/1918 21006KT P6SM VCSH SCT030 BKN050
     FM182000 16008KT P6SM VCTS SCT035CB SCT150
     FM190000 VRB02KT P6SM FEW035 SCT250
     FM191400 09007KT P6SM VCTS SCT030CB BKN050=



000
FTUS42 KMFL 181727
TAFFLL
TAF
KFLL 181727Z 1818/1918 22006KT P6SM VCSH SCT030 BKN050
     FM181900 09007KT P6SM VCTS SCT035CB BKN050
     FM190000 VRB03KT P6SM FEW035 SCT250
     FM191400 09007KT P6SM VCTS SCT030CB BKN050=



000
FTUS42 KMFL 181727
TAFAPF
TAF
KAPF 181727Z 1818/1918 27006KT P6SM VCSH FEW030 SCT050
     FM190000 VRB02KT P6SM FEW030 SCT250
     FM191300 07005KT P6SM VCSH SCT030 SCT050=



000
FTUS42 KMFL 181727
TAFPBI
TAF
KPBI 181727Z 1818/1918 06007KT P6SM VCTS SCT030CB BKN050
     FM190000 VRB03KT P6SM FEW030 SCT250
     FM191400 07007KT P6SM VCTS SCT030CB BKN050=



000
FTUS42 KMFL 181727
TAFFLL
TAF
KFLL 181727Z 1818/1918 22006KT P6SM VCSH SCT030 BKN050
     FM181900 09007KT P6SM VCTS SCT035CB BKN050
     FM190000 VRB03KT P6SM FEW035 SCT250
     FM191400 09007KT P6SM VCTS SCT030CB BKN050=



000
FTUS42 KMFL 181727
TAFPBI
TAF
KPBI 181727Z 1818/1918 06007KT P6SM VCTS SCT030CB BKN050
     FM190000 VRB03KT P6SM FEW030 SCT250
     FM191400 07007KT P6SM VCTS SCT030CB BKN050=



000
FTUS42 KMFL 181727
TAFMIA
TAF
KMIA 181727Z 1818/1918 21006KT P6SM VCSH SCT030 BKN050
     FM182000 16008KT P6SM VCTS SCT035CB SCT150
     FM190000 VRB02KT P6SM FEW035 SCT250
     FM191400 09007KT P6SM VCTS SCT030CB BKN050=



000
FTUS42 KMFL 181518 AAA
TAFPBI
TAF AMD
KPBI 181518Z 1815/1912 24006KT P6SM FEW020 BKN026 BKN250
     FM181900 09008KT P6SM VCTS SCT035CB
     FM190000 VRB03KT P6SM FEW030 SCT250=



000
FTUS42 KMFL 181518 AAA
TAFPBI
TAF AMD
KPBI 181518Z 1815/1912 24006KT P6SM FEW020 BKN026 BKN250
     FM181900 09008KT P6SM VCTS SCT035CB
     FM190000 VRB03KT P6SM FEW030 SCT250=



000
FTUS42 KMFL 181518 AAA
TAFAPF
TAF AMD
KAPF 181518Z 1815/1912 VRB05KT P6SM VCSH SCT090
     FM181700 28008KT P6SM VCSH SCT035 SCT150
     FM182300 05005KT P6SM VCSH SCT035 BKN250=



000
FTUS42 KMFL 181518 AAA
TAFFLL
TAF AMD
KFLL 181518Z 1815/1912 19005KT P6SM FEW020 BKN027
     FM181800 13008KT P6SM VCTS SCT035CB SCT150
     FM190000 VRB03KT P6SM FEW035 SCT250=



000
FTUS42 KMFL 181518 AAA
TAFAPF
TAF AMD
KAPF 181518Z 1815/1912 VRB05KT P6SM VCSH SCT090
     FM181700 28008KT P6SM VCSH SCT035 SCT150
     FM182300 05005KT P6SM VCSH SCT035 BKN250=



000
FTUS42 KMFL 181518 AAA
TAFMIA
TAF AMD
KMIA 181518Z 1815/1912 25007KT P6SM VCSH SCT023 SCT060 BKN250
     FM181900 16008KT P6SM VCTS SCT035CB SCT150
     FM190000 VRB02KT P6SM FEW035 SCT250=



000
FTUS42 KMFL 181518 AAA
TAFFLL
TAF AMD
KFLL 181518Z 1815/1912 19005KT P6SM FEW020 BKN027
     FM181800 13008KT P6SM VCTS SCT035CB SCT150
     FM190000 VRB03KT P6SM FEW035 SCT250=



000
FTUS42 KMFL 181518 AAA
TAFMIA
TAF AMD
KMIA 181518Z 1815/1912 25007KT P6SM VCSH SCT023 SCT060 BKN250
     FM181900 16008KT P6SM VCTS SCT035CB SCT150
     FM190000 VRB02KT P6SM FEW035 SCT250=



000
FTUS42 KMFL 181139
TAFPBI
TAF
KPBI 181139Z 1812/1912 31005KT P6SM SCT030 SCT040 SCT250
     FM181900 09008KT P6SM VCTS SCT035CB
     FM190000 VRB03KT P6SM FEW030 SCT250=



000
FTUS42 KMFL 181139
TAFFLL
TAF
KFLL 181139Z 1812/1912 VRB05KT P6SM FEW035 SCT250
     FM181800 13008KT P6SM VCTS SCT035CB SCT150
     FM190000 VRB03KT P6SM FEW035 SCT250=



000
FTUS42 KMFL 181139
TAFMIA
TAF
KMIA 181139Z 1812/1912 VRB05KT P6SM VCSH FEW035 SCT080
     FM181900 16008KT P6SM VCTS SCT035CB SCT150
     FM190000 VRB02KT P6SM FEW035 SCT250=



000
FTUS42 KMFL 181139
TAFAPF
TAF
KAPF 181139Z 1812/1912 VRB05KT P6SM VCSH SCT035 SCT050
     FM181700 28008KT P6SM VCTS SCT035CB SCT150
     FM182300 05005KT P6SM VCSH SCT035 BKN250=



000
FTUS42 KMFL 181139
TAFFLL
TAF
KFLL 181139Z 1812/1912 VRB05KT P6SM FEW035 SCT250
     FM181800 13008KT P6SM VCTS SCT035CB SCT150
     FM190000 VRB03KT P6SM FEW035 SCT250=



000
FTUS42 KMFL 181139
TAFAPF
TAF
KAPF 181139Z 1812/1912 VRB05KT P6SM VCSH SCT035 SCT050
     FM181700 28008KT P6SM VCTS SCT035CB SCT150
     FM182300 05005KT P6SM VCSH SCT035 BKN250=



000
FTUS42 KMFL 181139
TAFPBI
TAF
KPBI 181139Z 1812/1912 31005KT P6SM SCT030 SCT040 SCT250
     FM181900 09008KT P6SM VCTS SCT035CB
     FM190000 VRB03KT P6SM FEW030 SCT250=



000
FTUS42 KMFL 181139
TAFMIA
TAF
KMIA 181139Z 1812/1912 VRB05KT P6SM VCSH FEW035 SCT080
     FM181900 16008KT P6SM VCTS SCT035CB SCT150
     FM190000 VRB02KT P6SM FEW035 SCT250=



000
FTUS42 KMFL 180907 AAA
TAFAPF
TAF AMD
KAPF 180907Z 1809/1906 00000KT P6SM VCSH SCT035 BKN070
     FM181400 35006KT P6SM SCT035 BKN250
     FM181900 28008KT P6SM VCTS SCT035CB SCT150
     FM182300 05005KT P6SM VCSH SCT035 BKN250=



000
FTUS42 KMFL 180907 AAA
TAFAPF
TAF AMD
KAPF 180907Z 1809/1906 00000KT P6SM VCSH SCT035 BKN070
     FM181400 35006KT P6SM SCT035 BKN250
     FM181900 28008KT P6SM VCTS SCT035CB SCT150
     FM182300 05005KT P6SM VCSH SCT035 BKN250=



000
FTUS42 KMFL 180905 AAA
TAFMIA
TAF AMD
KMIA 180905Z 1809/1906 19005KT P6SM SCT150 BKN250
     FM181300 31005KT P6SM FEW035 SCT250
     FM181900 17008KT P6SM VCTS SCT035CB SCT150
     FM190100 13005KT P6SM FEW035 SCT250=



000
FTUS42 KMFL 180905 AAA
TAFMIA
TAF AMD
KMIA 180905Z 1809/1906 19005KT P6SM SCT150 BKN250
     FM181300 31005KT P6SM FEW035 SCT250
     FM181900 17008KT P6SM VCTS SCT035CB SCT150
     FM190100 13005KT P6SM FEW035 SCT250=



000
FTUS42 KMFL 180903 AAA
TAFFLL
TAF AMD
KFLL 180903Z 1809/1906 21005KT P6SM FEW030 SCT100
     FM181300 34004KT P6SM FEW035 SCT250
     FM181900 13008KT P6SM VCTS SCT035CB SCT150
     FM190200 VRB04KT P6SM FEW035 SCT250=



000
FTUS42 KMFL 180903 AAA
TAFFLL
TAF AMD
KFLL 180903Z 1809/1906 21005KT P6SM FEW030 SCT100
     FM181300 34004KT P6SM FEW035 SCT250
     FM181900 13008KT P6SM VCTS SCT035CB SCT150
     FM190200 VRB04KT P6SM FEW035 SCT250=



000
FTUS42 KMFL 180903 AAA
TAFPBI
TAF AMD
KPBI 180903Z 1809/1906 29005KT P6SM SCT150 SCT250
     FM181300 33006KT P6SM FEW035 SCT250
     FM181900 08008KT P6SM VCTS SCT035CB SCT150
     FM190200 10006KT P6SM FEW035 SCT250=



000
FTUS42 KMFL 180903 AAA
TAFPBI
TAF AMD
KPBI 180903Z 1809/1906 29005KT P6SM SCT150 SCT250
     FM181300 33006KT P6SM FEW035 SCT250
     FM181900 08008KT P6SM VCTS SCT035CB SCT150
     FM190200 10006KT P6SM FEW035 SCT250=



000
FTUS42 KMFL 180537
TAFFLL
TAF
KFLL 180537Z 1806/1906 24005KT P6SM FEW030 SCT100
     FM181300 34004KT P6SM FEW035 SCT250
     FM181900 13008KT P6SM VCTS SCT035CB SCT150
     FM190200 VRB04KT P6SM FEW035 SCT250=



000
FTUS42 KMFL 180537
TAFMIA
TAF
KMIA 180537Z 1806/1906 VRB03KT P6SM FEW100 BKN250
     FM181300 31005KT P6SM FEW035 SCT250
     FM181900 17008KT P6SM VCTS SCT035CB SCT150
     FM190100 13005KT P6SM FEW035 SCT250=



000
FTUS42 KMFL 180537
TAFPBI
TAF
KPBI 180537Z 1806/1906 29005KT P6SM SCT150 SCT250
     FM181300 33006KT P6SM FEW035 SCT250
     FM181900 08008KT P6SM VCTS SCT035CB SCT150
     FM190200 10006KT P6SM FEW035 SCT250=



000
FTUS42 KMFL 180537
TAFAPF
TAF
KAPF 180537Z 1806/1906 VRB05KT P6SM VCSH SCT005 BKN070
      TEMPO 1806/1807 5SM SHRA BKN005
     FM181000 32004KT P6SM SCT015 BKN100
     FM181400 35006KT P6SM SCT035 BKN250
     FM181900 28008KT P6SM VCTS SCT035CB SCT150
     FM182300 05005KT P6SM VCSH SCT035 BKN250=



000
FTUS42 KMFL 180537
TAFPBI
TAF
KPBI 180537Z 1806/1906 29005KT P6SM SCT150 SCT250
     FM181300 33006KT P6SM FEW035 SCT250
     FM181900 08008KT P6SM VCTS SCT035CB SCT150
     FM190200 10006KT P6SM FEW035 SCT250=



000
FTUS42 KMFL 180235 AAA
TAFMIA
TAF AMD
KMIA 180235Z 1803/1824 VRB03KT P6SM FEW040 BKN200
     FM181300 29007KT P6SM FEW035 SCT050
     FM181700 22009KT P6SM VCTS SCT035CB SCT150=



000
FTUS42 KMFL 180235 AAA
TAFMIA
TAF AMD
KMIA 180235Z 1803/1824 VRB03KT P6SM FEW040 BKN200
     FM181300 29007KT P6SM FEW035 SCT050
     FM181700 22009KT P6SM VCTS SCT035CB SCT150=



000
FTUS42 KMFL 180233 AAA
TAFPBI
TAF AMD
KPBI 180233Z 1803/1824 21006KT P6SM FEW035 SCT250
     FM181300 29007KT P6SM FEW035 SCT050
     FM181700 19009KT P6SM VCTS SCT035CB SCT150=



000
FTUS42 KMFL 180233 AAA
TAFPBI
TAF AMD
KPBI 180233Z 1803/1824 21006KT P6SM FEW035 SCT250
     FM181300 29007KT P6SM FEW035 SCT050
     FM181700 19009KT P6SM VCTS SCT035CB SCT150=



000
FTUS42 KMFL 180233 AAA
TAFFLL
TAF AMD
KFLL 180233Z 1803/1824 VRB03KT P6SM SCT035 BKN250
     FM181300 29007KT P6SM FEW035 SCT050
     FM181700 20009KT P6SM VCTS SCT035CB SCT150=



000
FTUS42 KMFL 180233 AAA
TAFFLL
TAF AMD
KFLL 180233Z 1803/1824 VRB03KT P6SM SCT035 BKN250
     FM181300 29007KT P6SM FEW035 SCT050
     FM181700 20009KT P6SM VCTS SCT035CB SCT150=



000
FTUS42 KMFL 180232 AAA
TAFAPF
TAF AMD
KAPF 180232Z 1803/1824 VRB04KT P6SM SHRA SCT020 BKN035
      TEMPO 1803/1804 3SM +RA
     FM180400 VRB04KT P6SM SCT030 BKN060
     FM181500 26009KT P6SM VCTS SCT035CB SCT150=



000
FTUS42 KMFL 180232 AAA
TAFAPF
TAF AMD
KAPF 180232Z 1803/1824 VRB04KT P6SM SHRA SCT020 BKN035
      TEMPO 1803/1804 3SM +RA
     FM180400 VRB04KT P6SM SCT030 BKN060
     FM181500 26009KT P6SM VCTS SCT035CB SCT150=



000
FTUS42 KMFL 172331
TAFFLL
TAF
KFLL 172331Z 1800/1824 00000KT P6SM FEW060 BKN250
     FM181300 29007KT P6SM FEW035 SCT050
     FM181700 20009KT P6SM VCTS SCT035CB SCT150=



000
FTUS42 KMFL 172331
TAFMIA
TAF
KMIA 172331Z 1800/1824 00000KT P6SM SCT050 BKN200
     FM181300 29007KT P6SM FEW035 SCT050
     FM181700 22009KT P6SM VCTS SCT035CB SCT150=



000
FTUS42 KMFL 172331
TAFAPF
TAF
KAPF 172331Z 1800/1824 32003KT P6SM FEW025 SCT150
     FM181500 26009KT P6SM VCTS SCT035CB SCT150=



000
FTUS42 KMFL 172331
TAFFLL
TAF
KFLL 172331Z 1800/1824 00000KT P6SM FEW060 BKN250
     FM181300 29007KT P6SM FEW035 SCT050
     FM181700 20009KT P6SM VCTS SCT035CB SCT150=



000
FTUS42 KMFL 172331
TAFPBI
TAF
KPBI 172331Z 1800/1824 24003KT P6SM FEW035 SCT250
     FM181300 29007KT P6SM FEW035 SCT050
     FM181700 19009KT P6SM VCTS SCT035CB SCT150=



000
FTUS42 KMFL 172331
TAFAPF
TAF
KAPF 172331Z 1800/1824 32003KT P6SM FEW025 SCT150
     FM181500 26009KT P6SM VCTS SCT035CB SCT150=



000
FTUS42 KMFL 172331
TAFMIA
TAF
KMIA 172331Z 1800/1824 00000KT P6SM SCT050 BKN200
     FM181300 29007KT P6SM FEW035 SCT050
     FM181700 22009KT P6SM VCTS SCT035CB SCT150=



000
FTUS42 KMFL 172331
TAFPBI
TAF
KPBI 172331Z 1800/1824 24003KT P6SM FEW035 SCT250
     FM181300 29007KT P6SM FEW035 SCT050
     FM181700 19009KT P6SM VCTS SCT035CB SCT150=



000
FTUS42 KMFL 172043 AAB
TAFFLL
TAF AMD
KFLL 172043Z 1721/1818 14005KT P6SM VCTS FEW030 BKN050CB
      TEMPO 1721/1723 VRB15G25KT 5SM TSRA SCT015 BKN030CB OVC050
     FM180000 VRB03KT P6SM FEW035 SCT250
     FM181300 29007KT P6SM FEW035 SCT050=



000
FTUS42 KMFL 172043 AAA
TAFAPF
TAF AMD
KAPF 172043Z 1721/1818 29007KT P6SM VCSH SCT060 BKN120
      TEMPO 1721/1724 VRB15G25KT 4SM TSRA BKN050CB
     FM180000 VRB03KT P6SM FEW030 SCT250=



000
FTUS42 KMFL 172043 AAB
TAFMIA
TAF AMD
KMIA 172043Z 1721/1818 19005KT P6SM VCTS FEW035 SCT050CB
      TEMPO 1721/1724 VRB15G25KT 6SM TSRA BKN035CB
     FM180000 VRB03KT P6SM FEW035 SCT250
     FM181300 29007KT P6SM FEW035 SCT050=



000
FTUS42 KMFL 172043 AAA
TAFAPF
TAF AMD
KAPF 172043Z 1721/1818 29007KT P6SM VCSH SCT060 BKN120
      TEMPO 1721/1724 VRB15G25KT 4SM TSRA BKN050CB
     FM180000 VRB03KT P6SM FEW030 SCT250=



000
FTUS42 KMFL 172043 AAB
TAFMIA
TAF AMD
KMIA 172043Z 1721/1818 19005KT P6SM VCTS FEW035 SCT050CB
      TEMPO 1721/1724 VRB15G25KT 6SM TSRA BKN035CB
     FM180000 VRB03KT P6SM FEW035 SCT250
     FM181300 29007KT P6SM FEW035 SCT050=



000
FTUS42 KMFL 172043 AAA
TAFPBI
TAF AMD
KPBI 172043Z 1721/1818 28012KT P6SM VCTS SCT035CB BKN080
      TEMPO 1721/1724 VRB15G25KT 6SM TSRA BKN035CB
     FM180000 VRB03KT P6SM FEW035 SCT250
     FM181300 29007KT P6SM FEW035 SCT050=



000
FTUS42 KMFL 172043 AAB
TAFFLL
TAF AMD
KFLL 172043Z 1721/1818 14005KT P6SM VCTS FEW030 BKN050CB
      TEMPO 1721/1723 VRB15G25KT 5SM TSRA SCT015 BKN030CB OVC050
     FM180000 VRB03KT P6SM FEW035 SCT250
     FM181300 29007KT P6SM FEW035 SCT050=



000
FTUS42 KMFL 172043 AAA
TAFPBI
TAF AMD
KPBI 172043Z 1721/1818 28012KT P6SM VCTS SCT035CB BKN080
      TEMPO 1721/1724 VRB15G25KT 6SM TSRA BKN035CB
     FM180000 VRB03KT P6SM FEW035 SCT250
     FM181300 29007KT P6SM FEW035 SCT050=



000
FTUS42 KMFL 171837 AAA
TAFMIA
TAF AMD
KMIA 171837Z 1719/1818 VRB05KT P6SM VCTS SCT030 SCT040CB
      TEMPO 1719/1721 VRB20G30KT 3SM TSRA SCT015 BKN030CB OVC050
     FM180000 VRB03KT P6SM FEW035 SCT250
     FM181300 29007KT P6SM FEW035 SCT050=



000
FTUS42 KMFL 171837 AAA
TAFMIA
TAF AMD
KMIA 171837Z 1719/1818 VRB05KT P6SM VCTS SCT030 SCT040CB
      TEMPO 1719/1721 VRB20G30KT 3SM TSRA SCT015 BKN030CB OVC050
     FM180000 VRB03KT P6SM FEW035 SCT250
     FM181300 29007KT P6SM FEW035 SCT050=



000
FTUS42 KMFL 171837 AAA
TAFFLL
TAF AMD
KFLL 171837Z 1719/1818 VRB05KT P6SM VCTS SCT030 BKN040CB
      TEMPO 1719/1722 VRB20G30KT 3SM TSRA SCT015 BKN030CB OVC050
     FM180000 VRB03KT P6SM FEW035 SCT250
     FM181300 29007KT P6SM FEW035 SCT050=



000
FTUS42 KMFL 171837 AAA
TAFFLL
TAF AMD
KFLL 171837Z 1719/1818 VRB05KT P6SM VCTS SCT030 BKN040CB
      TEMPO 1719/1722 VRB20G30KT 3SM TSRA SCT015 BKN030CB OVC050
     FM180000 VRB03KT P6SM FEW035 SCT250
     FM181300 29007KT P6SM FEW035 SCT050=



000
FTUS42 KMFL 171727
TAFAPF
TAF
KAPF 171727Z 1718/1818 22007KT P6SM VCTS SCT030 BKN040CB
      TEMPO 1718/1720 VRB02G30KT 3SM TSRA SCT015 BKN030CB OVC050
     FM172100 29010KT P6SM VCSH SCT050 BKN120
     FM180000 VRB03KT P6SM FEW030 SCT250=



000
FTUS42 KMFL 171727
TAFPBI
TAF
KPBI 171727Z 1718/1818 25009KT P6SM VCTS SCT035CB BKN050
      TEMPO 1719/1721 VRB20G30KT 3SM TSRA SCT015 BKN030CB OVC050
     FM180000 VRB03KT P6SM FEW035 SCT250
     FM181300 29007KT P6SM FEW035 SCT050=



000
FTUS42 KMFL 171727
TAFMIA
TAF
KMIA 171727Z 1718/1818 29008KT P6SM VCTS SCT030 SCT040CB
      TEMPO 1719/1721 VRB20G30KT 3SM TSRA SCT015 BKN030CB OVC050
     FM180000 VRB03KT P6SM FEW035 SCT250
     FM181300 29007KT P6SM FEW035 SCT050=



000
FTUS42 KMFL 171727
TAFFLL
TAF
KFLL 171727Z 1718/1818 21009KT P6SM VCTS SCT030 BKN040CB
      TEMPO 1719/1722 VRB20G30KT 3SM TSRA SCT015 BKN030CB OVC050
     FM180000 VRB03KT P6SM FEW035 SCT250
     FM181300 29007KT P6SM FEW035 SCT050=



000
FTUS42 KMFL 171727
TAFAPF
TAF
KAPF 171727Z 1718/1818 22007KT P6SM VCTS SCT030 BKN040CB
      TEMPO 1718/1720 VRB02G30KT 3SM TSRA SCT015 BKN030CB OVC050
     FM172100 29010KT P6SM VCSH SCT050 BKN120
     FM180000 VRB03KT P6SM FEW030 SCT250=



000
FTUS42 KMFL 171727
TAFMIA
TAF
KMIA 171727Z 1718/1818 29008KT P6SM VCTS SCT030 SCT040CB
      TEMPO 1719/1721 VRB20G30KT 3SM TSRA SCT015 BKN030CB OVC050
     FM180000 VRB03KT P6SM FEW035 SCT250
     FM181300 29007KT P6SM FEW035 SCT050=



000
FTUS42 KMFL 171727
TAFFLL
TAF
KFLL 171727Z 1718/1818 21009KT P6SM VCTS SCT030 BKN040CB
      TEMPO 1719/1722 VRB20G30KT 3SM TSRA SCT015 BKN030CB OVC050
     FM180000 VRB03KT P6SM FEW035 SCT250
     FM181300 29007KT P6SM FEW035 SCT050=



000
FTUS42 KMFL 171727
TAFPBI
TAF
KPBI 171727Z 1718/1818 25009KT P6SM VCTS SCT035CB BKN050
      TEMPO 1719/1721 VRB20G30KT 3SM TSRA SCT015 BKN030CB OVC050
     FM180000 VRB03KT P6SM FEW035 SCT250
     FM181300 29007KT P6SM FEW035 SCT050=



000
FTUS42 KMFL 171529 AAA
TAFMIA
TAF AMD
KMIA 171529Z 1715/1812 30007KT P6SM VCSH FEW025 SCT050
     FM171900 20010KT P6SM VCTS BKN040CB
     FM180100 25004KT P6SM FEW035 SCT250=



000
FTUS42 KMFL 171529 AAA
TAFMIA
TAF AMD
KMIA 171529Z 1715/1812 30007KT P6SM VCSH FEW025 SCT050
     FM171900 20010KT P6SM VCTS BKN040CB
     FM180100 25004KT P6SM FEW035 SCT250=



000
FTUS42 KMFL 171529 AAA
TAFPBI
TAF AMD
KPBI 171529Z 1715/1812 23005KT P6SM VCSH FEW030 SCT050
     FM171900 22010KT P6SM VCTS BKN040CB
     FM180100 26003KT P6SM FEW035 SCT250=



000
FTUS42 KMFL 171529 AAA
TAFAPF
TAF AMD
KAPF 171529Z 1715/1812 19005KT P6SM VCSH FEW030 SCT050
     FM171600 26010KT P6SM VCTS SCT030 BKN050CB
     FM172100 29010KT P6SM VCSH SCT050 BKN120
     FM180000 26003KT P6SM VCSH SCT050 SCT080
     FM180100 29004KT P6SM FEW035 SCT250=



000
FTUS42 KMFL 171529 AAA
TAFFLL
TAF AMD
KFLL 171529Z 1715/1812 VRB05KT P6SM VCSH FEW030 SCT050
     FM171900 21010KT P6SM VCTS BKN040CB
     FM180100 25003KT P6SM FEW035 SCT250=



000
FTUS42 KMFL 171529 AAA
TAFFLL
TAF AMD
KFLL 171529Z 1715/1812 VRB05KT P6SM VCSH FEW030 SCT050
     FM171900 21010KT P6SM VCTS BKN040CB
     FM180100 25003KT P6SM FEW035 SCT250=



000
FTUS42 KMFL 171529 AAA
TAFAPF
TAF AMD
KAPF 171529Z 1715/1812 19005KT P6SM VCSH FEW030 SCT050
     FM171600 26010KT P6SM VCTS SCT030 BKN050CB
     FM172100 29010KT P6SM VCSH SCT050 BKN120
     FM180000 26003KT P6SM VCSH SCT050 SCT080
     FM180100 29004KT P6SM FEW035 SCT250=



000
FTUS42 KMFL 171529 AAA
TAFPBI
TAF AMD
KPBI 171529Z 1715/1812 23005KT P6SM VCSH FEW030 SCT050
     FM171900 22010KT P6SM VCTS BKN040CB
     FM180100 26003KT P6SM FEW035 SCT250=



000
FTUS42 KMFL 171137
TAFMIA
TAF
KMIA 171137Z 1712/1812 VRB05KT P6SM FEW025 SCT050
     FM171500 23008KT P6SM VCSH SCT050 BKN100
     FM171900 20010KT P6SM VCTS BKN040CB
     FM180100 25004KT P6SM FEW035 SCT250=



000
FTUS42 KMFL 171137
TAFFLL
TAF
KFLL 171137Z 1712/1812 29004KT P6SM FEW025 SCT050
     FM171500 25008KT P6SM VCSH SCT050 BKN100
     FM171900 21010KT P6SM VCTS BKN040CB
     FM180100 25003KT P6SM FEW035 SCT250=



000
FTUS42 KMFL 171137
TAFPBI
TAF
KPBI 171137Z 1712/1812 VRB03KT P6SM FEW025 SCT050
     FM171500 25008KT P6SM VCSH SCT050 BKN100
     FM171900 22010KT P6SM VCTS BKN040CB
     FM180100 26003KT P6SM FEW035 SCT250=



000
FTUS42 KMFL 171137
TAFAPF
TAF
KAPF 171137Z 1712/1812 30006KT P6SM VCSH SCT050 BKN100
     FM171600 26010KT P6SM VCTS BKN040CB
     FM172100 29010KT P6SM VCSH SCT050 BKN120
     FM180000 26003KT P6SM VCSH SCT050 SCT080
     FM180100 29004KT P6SM FEW035 SCT250=



000
FTUS42 KMFL 171137
TAFFLL
TAF
KFLL 171137Z 1712/1812 29004KT P6SM FEW025 SCT050
     FM171500 25008KT P6SM VCSH SCT050 BKN100
     FM171900 21010KT P6SM VCTS BKN040CB
     FM180100 25003KT P6SM FEW035 SCT250=



000
FTUS42 KMFL 171137
TAFMIA
TAF
KMIA 171137Z 1712/1812 VRB05KT P6SM FEW025 SCT050
     FM171500 23008KT P6SM VCSH SCT050 BKN100
     FM171900 20010KT P6SM VCTS BKN040CB
     FM180100 25004KT P6SM FEW035 SCT250=



000
FTUS42 KMFL 171137
TAFPBI
TAF
KPBI 171137Z 1712/1812 VRB03KT P6SM FEW025 SCT050
     FM171500 25008KT P6SM VCSH SCT050 BKN100
     FM171900 22010KT P6SM VCTS BKN040CB
     FM180100 26003KT P6SM FEW035 SCT250=



000
FTUS42 KMFL 171137
TAFAPF
TAF
KAPF 171137Z 1712/1812 30006KT P6SM VCSH SCT050 BKN100
     FM171600 26010KT P6SM VCTS BKN040CB
     FM172100 29010KT P6SM VCSH SCT050 BKN120
     FM180000 26003KT P6SM VCSH SCT050 SCT080
     FM180100 29004KT P6SM FEW035 SCT250=



000
FTUS42 KMFL 170921 AAA
TAFAPF
TAF AMD
KAPF 170921Z 1709/1806 VRB03KT P6SM SCT100
     FM171500 25006KT P6SM VCSH SCT050 BKN100
     FM172000 26010KT P6SM VCTS BKN040CB
     FM180100 29004KT P6SM FEW035 SCT250=



000
FTUS42 KMFL 170921 AAA
TAFAPF
TAF AMD
KAPF 170921Z 1709/1806 VRB03KT P6SM SCT100
     FM171500 25006KT P6SM VCSH SCT050 BKN100
     FM172000 26010KT P6SM VCTS BKN040CB
     FM180100 29004KT P6SM FEW035 SCT250=



000
FTUS42 KMFL 170918 AAA
TAFMIA
TAF AMD
KMIA 170918Z 1709/1806 VRB03KT P6SM FEW025 SCT150
     FM171500 23008KT P6SM VCSH SCT050 BKN100
     FM172000 20010KT P6SM VCTS BKN040CB
     FM180100 25004KT P6SM FEW035 SCT250=



000
FTUS42 KMFL 170918 AAA
TAFMIA
TAF AMD
KMIA 170918Z 1709/1806 VRB03KT P6SM FEW025 SCT150
     FM171500 23008KT P6SM VCSH SCT050 BKN100
     FM172000 20010KT P6SM VCTS BKN040CB
     FM180100 25004KT P6SM FEW035 SCT250=



000
FTUS42 KMFL 170917 AAA
TAFFLL
TAF AMD
KFLL 170917Z 1709/1806 VRB03KT P6SM FEW025 SCT250
     FM171500 25008KT P6SM VCSH SCT050 BKN100
     FM172000 21010KT P6SM VCTS BKN040CB
     FM180100 25004KT P6SM FEW035 SCT250=



000
FTUS42 KMFL 170917 AAA
TAFFLL
TAF AMD
KFLL 170917Z 1709/1806 VRB03KT P6SM FEW025 SCT250
     FM171500 25008KT P6SM VCSH SCT050 BKN100
     FM172000 21010KT P6SM VCTS BKN040CB
     FM180100 25004KT P6SM FEW035 SCT250=



000
FTUS42 KMFL 170916 AAA
TAFPBI
TAF AMD
KPBI 170916Z 1709/1806 VRB03KT P6SM SCT100
     FM171500 25008KT P6SM VCSH SCT050 BKN100
     FM172000 22010KT P6SM VCTS BKN040CB
     FM180100 26004KT P6SM FEW035 SCT250=



000
FTUS42 KMFL 170916 AAA
TAFPBI
TAF AMD
KPBI 170916Z 1709/1806 VRB03KT P6SM SCT100
     FM171500 25008KT P6SM VCSH SCT050 BKN100
     FM172000 22010KT P6SM VCTS BKN040CB
     FM180100 26004KT P6SM FEW035 SCT250=



    US Dept of Commerce
    National Oceanic and Atmospheric Administration
    National Weather Service
    1325 East West Highway
    Silver Spring, MD 20910
    Page Author: NWS Internet Services Team
Disclaimer
Information Quality
Credits
Glossary
Privacy Policy
Freedom of Information Act (FOIA)
About Us
Career Opportunities